Current Weather

Burnet Muni Kate Craddock Fld

Burnet, Texas (KBMQ)

Report from: Monday, September 26, 2022 8:53 PM CDT
Current time: Monday, September 26, 2022 9:28 PM CDT

Nearby weather
Weather history
Weather forecast

Temperature25.0°C (77.0°F)
Dew point5.0°C (41.0°F)
Winds 5 kts (2.6 m/s, 5.8 mph) Northeast (40°)
Visibility10 mi. (16.1 km)
Clouds Sky clear
Altimeter30.13 in.Hg (1020 mB)
Relative humidity28 %
Density altitude1,052 ft. (321 m)
Sea-level pressure101.9 kPa (1019 mB, 30.08 in.Hg)
Remarks Fully automated report
Automated weather observing station with precipitation discriminator
Flight conditions Visual Meteorological Conditions
Raw dataKBMQ 270153Z AUTO 04005KT 10SM CLR 25/05 A3013 RMK AO2 SLP187 T02500050
An unhandled exception has occurred. See browser dev tools for details. Reload 🗙